sensor_id;sensor_type;location;lat;lon;timestamp;P1;durP1;ratioP1;P2;durP2;ratioP2
61915;SDS011;47868;51.326;6.550;2024-03-23T00:55:54;7.53;;;3.17;;
61915;SDS011;47868;51.326;6.550;2024-03-23T00:58:20;9.38;;;3.42;;
61915;SDS011;47868;51.326;6.550;2024-03-23T01:00:46;8.38;;;2.97;;
61915;SDS011;47868;51.326;6.550;2024-03-23T01:03:12;5.18;;;2.80;;
61915;SDS011;47868;51.326;6.550;2024-03-23T01:05:38;7.63;;;3.25;;
61915;SDS011;47868;51.326;6.550;2024-03-23T01:08:04;6.18;;;2.85;;
61915;SDS011;47868;51.326;6.550;2024-03-23T01:10:30;6.43;;;2.78;;
61915;SDS011;47868;51.326;6.550;2024-03-23T01:12:56;5.22;;;2.28;;
61915;SDS011;47868;51.326;6.550;2024-03-23T01:15:22;7.55;;;2.53;;
61915;SDS011;47868;51.326;6.550;2024-03-23T01:17:48;8.45;;;2.78;;
61915;SDS011;47868;51.326;6.550;2024-03-23T01:20:14;7.70;;;2.38;;
61915;SDS011;47868;51.326;6.550;2024-03-23T01:22:40;7.65;;;2.85;;
61915;SDS011;47868;51.326;6.550;2024-03-23T01:25:06;7.22;;;2.60;;
61915;SDS011;47868;51.326;6.550;2024-03-23T01:27:32;8.48;;;2.78;;
61915;SDS011;47868;51.326;6.550;2024-03-23T01:29:59;7.25;;;2.78;;
61915;SDS011;47868;51.326;6.550;2024-03-23T01:32:25;6.60;;;2.63;;
61915;SDS011;47868;51.326;6.550;2024-03-23T01:34:51;5.70;;;2.47;;
61915;SDS011;47868;51.326;6.550;2024-03-23T01:37:17;4.78;;;2.15;;
61915;SDS011;47868;51.326;6.550;2024-03-23T01:39:43;9.65;;;3.10;;
61915;SDS011;47868;51.326;6.550;2024-03-23T01:42:09;7.07;;;2.70;;
61915;SDS011;47868;51.326;6.550;2024-03-23T01:44:35;7.35;;;2.17;;
61915;SDS011;47868;51.326;6.550;2024-03-23T01:47:01;4.82;;;2.35;;
61915;SDS011;47868;51.326;6.550;2024-03-23T01:49:27;7.78;;;2.53;;
61915;SDS011;47868;51.326;6.550;2024-03-23T01:51:54;6.55;;;2.75;;
61915;SDS011;47868;51.326;6.550;2024-03-23T01:54:20;8.43;;;2.47;;
61915;SDS011;47868;51.326;6.550;2024-03-23T01:56:47;9.95;;;2.75;;
61915;SDS011;47868;51.326;6.550;2024-03-23T01:59:14;6.78;;;2.60;;
61915;SDS011;47868;51.326;6.550;2024-03-23T02:01:40;6.30;;;2.33;;
61915;SDS011;47868;51.326;6.550;2024-03-23T02:04:06;6.43;;;2.58;;
61915;SDS011;47868;51.326;6.550;2024-03-23T02:06:34;7.15;;;2.85;;
61915;SDS011;47868;51.326;6.550;2024-03-23T02:09:00;4.72;;;2.38;;
61915;SDS011;47868;51.326;6.550;2024-03-23T02:11:26;6.75;;;2.45;;
61915;SDS011;47868;51.326;6.550;2024-03-23T02:13:52;8.65;;;2.58;;
61915;SDS011;47868;51.326;6.550;2024-03-23T02:16:18;6.78;;;2.30;;
61915;SDS011;47868;51.326;6.550;2024-03-23T02:18:44;7.40;;;2.58;;
61915;SDS011;47868;51.326;6.550;2024-03-23T02:21:10;12.57;;;2.83;;
61915;SDS011;47868;51.326;6.550;2024-03-23T02:23:36;9.77;;;2.83;;
61915;SDS011;47868;51.326;6.550;2024-03-23T02:26:02;5.25;;;2.25;;
61915;SDS011;47868;51.326;6.550;2024-03-23T02:28:28;7.80;;;3.15;;
61915;SDS011;47868;51.326;6.550;2024-03-23T02:30:54;5.72;;;2.45;;
61915;SDS011;47868;51.326;6.550;2024-03-23T02:33:20;7.43;;;2.60;;
61915;SDS011;47868;51.326;6.550;2024-03-23T02:35:46;9.88;;;2.70;;
61915;SDS011;47868;51.326;6.550;2024-03-23T02:38:13;8.80;;;2.85;;
61915;SDS011;47868;51.326;6.550;2024-03-23T02:40:39;5.88;;;2.80;;
61915;SDS011;47868;51.326;6.550;2024-03-23T02:43:05;10.32;;;3.05;;
61915;SDS011;47868;51.326;6.550;2024-03-23T02:45:31;10.10;;;2.83;;
61915;SDS011;47868;51.326;6.550;2024-03-23T02:47:57;6.72;;;2.70;;
61915;SDS011;47868;51.326;6.550;2024-03-23T02:50:23;12.85;;;3.28;;
61915;SDS011;47868;51.326;6.550;2024-03-23T02:52:49;8.50;;;2.65;;
61915;SDS011;47868;51.326;6.550;2024-03-23T02:55:15;8.07;;;2.42;;
61915;SDS011;47868;51.326;6.550;2024-03-23T02:57:41;6.60;;;2.47;;
61915;SDS011;47868;51.326;6.550;2024-03-23T03:00:08;6.38;;;2.58;;
61915;SDS011;47868;51.326;6.550;2024-03-23T03:02:35;6.97;;;2.67;;
61915;SDS011;47868;51.326;6.550;2024-03-23T03:05:02;8.23;;;2.88;;
61915;SDS011;47868;51.326;6.550;2024-03-23T03:07:30;6.80;;;2.97;;
61915;SDS011;47868;51.326;6.550;2024-03-23T03:09:56;10.73;;;2.60;;
61915;SDS011;47868;51.326;6.550;2024-03-23T03:12:22;10.05;;;2.97;;
61915;SDS011;47868;51.326;6.550;2024-03-23T03:14:48;8.07;;;3.00;;
61915;SDS011;47868;51.326;6.550;2024-03-23T03:17:14;7.65;;;2.72;;
61915;SDS011;47868;51.326;6.550;2024-03-23T03:19:40;11.07;;;2.92;;
61915;SDS011;47868;51.326;6.550;2024-03-23T03:22:06;7.18;;;2.78;;
61915;SDS011;47868;51.326;6.550;2024-03-23T03:24:32;7.30;;;2.67;;
61915;SDS011;47868;51.326;6.550;2024-03-23T03:26:58;10.63;;;3.30;;
61915;SDS011;47868;51.326;6.550;2024-03-23T03:29:24;8.60;;;2.63;;
61915;SDS011;47868;51.326;6.550;2024-03-23T03:31:50;9.50;;;3.15;;
61915;SDS011;47868;51.326;6.550;2024-03-23T03:34:16;5.85;;;3.10;;
61915;SDS011;47868;51.326;6.550;2024-03-23T03:36:42;7.80;;;2.80;;
61915;SDS011;47868;51.326;6.550;2024-03-23T03:39:08;9.65;;;2.78;;
61915;SDS011;47868;51.326;6.550;2024-03-23T03:41:35;8.77;;;2.92;;
61915;SDS011;47868;51.326;6.550;2024-03-23T03:44:01;11.27;;;3.15;;
61915;SDS011;47868;51.326;6.550;2024-03-23T03:46:30;9.52;;;3.25;;
61915;SDS011;47868;51.326;6.550;2024-03-23T03:48:56;8.93;;;3.03;;
61915;SDS011;47868;51.326;6.550;2024-03-23T03:51:22;8.48;;;2.80;;
61915;SDS011;47868;51.326;6.550;2024-03-23T03:53:48;10.57;;;3.13;;
61915;SDS011;47868;51.326;6.550;2024-03-23T03:56:14;9.15;;;2.83;;
61915;SDS011;47868;51.326;6.550;2024-03-23T03:58:40;6.50;;;2.80;;
61915;SDS011;47868;51.326;6.550;2024-03-23T04:01:06;9.73;;;3.50;;
61915;SDS011;47868;51.326;6.550;2024-03-23T04:03:32;9.05;;;3.17;;
61915;SDS011;47868;51.326;6.550;2024-03-23T04:05:58;11.48;;;3.40;;
61915;SDS011;47868;51.326;6.550;2024-03-23T04:08:24;9.65;;;3.33;;
61915;SDS011;47868;51.326;6.550;2024-03-23T04:10:50;11.38;;;3.63;;
61915;SDS011;47868;51.326;6.550;2024-03-23T04:13:16;17.00;;;4.05;;
61915;SDS011;47868;51.326;6.550;2024-03-23T04:15:42;10.88;;;3.72;;
61915;SDS011;47868;51.326;6.550;2024-03-23T04:18:08;12.13;;;4.40;;
61915;SDS011;47868;51.326;6.550;2024-03-23T04:20:34;9.55;;;3.70;;
61915;SDS011;47868;51.326;6.550;2024-03-23T04:23:00;10.82;;;3.55;;
61915;SDS011;47868;51.326;6.550;2024-03-23T04:25:26;11.15;;;4.25;;
61915;SDS011;47868;51.326;6.550;2024-03-23T04:27:52;12.55;;;4.65;;
61915;SDS011;47868;51.326;6.550;2024-03-23T04:30:18;15.02;;;4.47;;
61915;SDS011;47868;51.326;6.550;2024-03-23T04:32:44;15.13;;;4.32;;
61915;SDS011;47868;51.326;6.550;2024-03-23T04:35:10;11.85;;;4.18;;
61915;SDS011;47868;51.326;6.550;2024-03-23T04:37:36;9.55;;;4.35;;
61915;SDS011;47868;51.326;6.550;2024-03-23T04:40:03;11.68;;;4.72;;
61915;SDS011;47868;51.326;6.550;2024-03-23T04:42:29;15.15;;;6.05;;
61915;SDS011;47868;51.326;6.550;2024-03-23T04:44:56;7.70;;;4.32;;
61915;SDS011;47868;51.326;6.550;2024-03-23T04:47:22;16.83;;;5.57;;
61915;SDS011;47868;51.326;6.550;2024-03-23T04:49:48;15.45;;;5.25;;
61915;SDS011;47868;51.326;6.550;2024-03-23T04:52:14;10.15;;;5.60;;
61915;SDS011;47868;51.326;6.550;2024-03-23T04:54:40;15.57;;;6.03;;
61915;SDS011;47868;51.326;6.550;2024-03-23T04:57:06;12.45;;;5.22;;
61915;SDS011;47868;51.326;6.550;2024-03-23T04:59:32;13.68;;;5.72;;
61915;SDS011;47868;51.326;6.550;2024-03-23T05:01:58;10.98;;;5.45;;
61915;SDS011;47868;51.326;6.550;2024-03-23T05:04:25;12.80;;;5.20;;
61915;SDS011;47868;51.326;6.550;2024-03-23T05:06:51;9.95;;;5.60;;
61915;SDS011;47868;51.326;6.550;2024-03-23T05:09:17;12.18;;;5.68;;
61915;SDS011;47868;51.326;6.550;2024-03-23T05:11:43;19.08;;;5.88;;
61915;SDS011;47868;51.326;6.550;2024-03-23T05:14:09;17.05;;;5.60;;
61915;SDS011;47868;51.326;6.550;2024-03-23T05:16:35;16.23;;;5.07;;
61915;SDS011;47868;51.326;6.550;2024-03-23T05:19:01;16.80;;;6.05;;
61915;SDS011;47868;51.326;6.550;2024-03-23T05:21:27;9.60;;;5.30;;
61915;SDS011;47868;51.326;6.550;2024-03-23T05:23:56;9.23;;;5.88;;
61915;SDS011;47868;51.326;6.550;2024-03-23T05:26:22;11.65;;;5.50;;
61915;SDS011;47868;51.326;6.550;2024-03-23T05:28:48;12.93;;;6.05;;
61915;SDS011;47868;51.326;6.550;2024-03-23T05:31:24;14.52;;;6.72;;
61915;SDS011;47868;51.326;6.550;2024-03-23T05:33:50;12.30;;;7.15;;
61915;SDS011;47868;51.326;6.550;2024-03-23T05:36:16;11.68;;;6.95;;
61915;SDS011;47868;51.326;6.550;2024-03-23T05:38:42;16.92;;;8.32;;
61915;SDS011;47868;51.326;6.550;2024-03-23T05:41:08;17.20;;;8.15;;
61915;SDS011;47868;51.326;6.550;2024-03-23T05:43:34;20.52;;;8.52;;
61915;SDS011;47868;51.326;6.550;2024-03-23T05:46:00;13.63;;;8.32;;
61915;SDS011;47868;51.326;6.550;2024-03-23T05:48:30;18.92;;;8.98;;
61915;SDS011;47868;51.326;6.550;2024-03-23T05:50:56;19.60;;;9.10;;
61915;SDS011;47868;51.326;6.550;2024-03-23T05:53:22;16.08;;;9.55;;
61915;SDS011;47868;51.326;6.550;2024-03-23T05:55:49;19.10;;;9.43;;
61915;SDS011;47868;51.326;6.550;2024-03-23T05:58:16;22.30;;;9.18;;
61915;SDS011;47868;51.326;6.550;2024-03-23T06:00:42;12.80;;;8.23;;
61915;SDS011;47868;51.326;6.550;2024-03-23T06:03:08;14.45;;;9.02;;
61915;SDS011;47868;51.326;6.550;2024-03-23T06:05:35;17.50;;;8.98;;
61915;SDS011;47868;51.326;6.550;2024-03-23T06:08:01;14.00;;;9.10;;
61915;SDS011;47868;51.326;6.550;2024-03-23T06:10:27;18.05;;;9.50;;
61915;SDS011;47868;51.326;6.550;2024-03-23T06:12:53;17.83;;;9.35;;
61915;SDS011;47868;51.326;6.550;2024-03-23T06:15:19;17.42;;;9.35;;
61915;SDS011;47868;51.326;6.550;2024-03-23T06:17:45;23.40;;;9.43;;
61915;SDS011;47868;51.326;6.550;2024-03-23T06:20:12;17.13;;;8.55;;
61915;SDS011;47868;51.326;6.550;2024-03-23T06:22:38;23.58;;;9.50;;
61915;SDS011;47868;51.326;6.550;2024-03-23T06:25:04;16.60;;;8.05;;
61915;SDS011;47868;51.326;6.550;2024-03-23T06:27:30;20.38;;;8.07;;
61915;SDS011;47868;51.326;6.550;2024-03-23T06:29:57;24.52;;;8.90;;
61915;SDS011;47868;51.326;6.550;2024-03-23T06:32:23;22.23;;;8.75;;
61915;SDS011;47868;51.326;6.550;2024-03-23T06:34:49;15.88;;;7.63;;
61915;SDS011;47868;51.326;6.550;2024-03-23T06:37:15;17.23;;;8.38;;
61915;SDS011;47868;51.326;6.550;2024-03-23T06:39:41;14.32;;;7.68;;
61915;SDS011;47868;51.326;6.550;2024-03-23T06:42:07;16.90;;;7.53;;
61915;SDS011;47868;51.326;6.550;2024-03-23T06:44:34;19.50;;;8.05;;
61915;SDS011;47868;51.326;6.550;2024-03-23T06:47:00;19.65;;;7.00;;
61915;SDS011;47868;51.326;6.550;2024-03-23T06:49:26;17.75;;;7.32;;
61915;SDS011;47868;51.326;6.550;2024-03-23T06:51:52;17.17;;;7.90;;
61915;SDS011;47868;51.326;6.550;2024-03-23T06:54:18;13.93;;;7.60;;
61915;SDS011;47868;51.326;6.550;2024-03-23T06:56:44;17.45;;;8.13;;
61915;SDS011;47868;51.326;6.550;2024-03-23T06:59:11;19.38;;;7.10;;
61915;SDS011;47868;51.326;6.550;2024-03-23T07:01:37;17.48;;;7.75;;
61915;SDS011;47868;51.326;6.550;2024-03-23T07:04:03;16.05;;;7.38;;
61915;SDS011;47868;51.326;6.550;2024-03-23T07:06:29;16.80;;;7.25;;
61915;SDS011;47868;51.326;6.550;2024-03-23T07:08:55;13.32;;;7.28;;
61915;SDS011;47868;51.326;6.550;2024-03-23T07:11:21;18.73;;;7.93;;
61915;SDS011;47868;51.326;6.550;2024-03-23T07:13:52;15.02;;;7.22;;
61915;SDS011;47868;51.326;6.550;2024-03-23T07:16:19;21.00;;;7.50;;
61915;SDS011;47868;51.326;6.550;2024-03-23T07:18:46;14.23;;;7.00;;
61915;SDS011;47868;51.326;6.550;2024-03-23T07:21:12;16.35;;;7.35;;
61915;SDS011;47868;51.326;6.550;2024-03-23T07:23:39;20.00;;;7.07;;
61915;SDS011;47868;51.326;6.550;2024-03-23T07:26:09;18.50;;;7.22;;
61915;SDS011;47868;51.326;6.550;2024-03-23T07:28:35;21.75;;;7.35;;
61915;SDS011;47868;51.326;6.550;2024-03-23T07:33:28;17.98;;;6.10;;
61915;SDS011;47868;51.326;6.550;2024-03-23T07:35:54;13.55;;;6.63;;
61915;SDS011;47868;51.326;6.550;2024-03-23T07:38:21;16.83;;;6.50;;
61915;SDS011;47868;51.326;6.550;2024-03-23T07:40:47;14.32;;;6.50;;
61915;SDS011;47868;51.326;6.550;2024-03-23T07:43:19;16.35;;;6.70;;
61915;SDS011;47868;51.326;6.550;2024-03-23T07:45:50;20.92;;;6.97;;
61915;SDS011;47868;51.326;6.550;2024-03-23T07:48:17;14.77;;;6.45;;
61915;SDS011;47868;51.326;6.550;2024-03-23T07:50:43;17.08;;;7.15;;
61915;SDS011;47868;51.326;6.550;2024-03-23T07:53:09;18.48;;;7.25;;
61915;SDS011;47868;51.326;6.550;2024-03-23T07:55:35;16.58;;;7.47;;
61915;SDS011;47868;51.326;6.550;2024-03-23T07:58:01;18.55;;;6.68;;
61915;SDS011;47868;51.326;6.550;2024-03-23T08:00:27;15.30;;;6.38;;
61915;SDS011;47868;51.326;6.550;2024-03-23T08:02:53;14.52;;;6.90;;
61915;SDS011;47868;51.326;6.550;2024-03-23T08:05:19;19.60;;;7.20;;
61915;SDS011;47868;51.326;6.550;2024-03-23T08:07:46;19.60;;;6.55;;
61915;SDS011;47868;51.326;6.550;2024-03-23T08:10:12;15.32;;;6.10;;
61915;SDS011;47868;51.326;6.550;2024-03-23T08:12:38;14.75;;;5.32;;
61915;SDS011;47868;51.326;6.550;2024-03-23T08:15:04;14.45;;;5.32;;
61915;SDS011;47868;51.326;6.550;2024-03-23T08:17:30;12.55;;;5.40;;
61915;SDS011;47868;51.326;6.550;2024-03-23T08:19:56;13.05;;;5.30;;
61915;SDS011;47868;51.326;6.550;2024-03-23T08:22:22;5.60;;;2.63;;
61915;SDS011;47868;51.326;6.550;2024-03-23T08:24:48;2.88;;;2.08;;
61915;SDS011;47868;51.326;6.550;2024-03-23T08:27:14;4.97;;;2.05;;
61915;SDS011;47868;51.326;6.550;2024-03-23T08:29:40;7.78;;;2.55;;
61915;SDS011;47868;51.326;6.550;2024-03-23T08:32:06;5.00;;;2.60;;
61915;SDS011;47868;51.326;6.550;2024-03-23T08:34:32;3.80;;;2.10;;
61915;SDS011;47868;51.326;6.550;2024-03-23T08:36:58;3.83;;;1.88;;
61915;SDS011;47868;51.326;6.550;2024-03-23T08:39:24;4.53;;;1.92;;
61915;SDS011;47868;51.326;6.550;2024-03-23T08:41:50;4.72;;;1.80;;
61915;SDS011;47868;51.326;6.550;2024-03-23T08:44:16;4.20;;;2.13;;
61915;SDS011;47868;51.326;6.550;2024-03-23T08:46:42;3.65;;;3.00;;
61915;SDS011;47868;51.326;6.550;2024-03-23T08:49:08;4.85;;;2.83;;
61915;SDS011;47868;51.326;6.550;2024-03-23T08:51:34;8.30;;;3.22;;
61915;SDS011;47868;51.326;6.550;2024-03-23T08:54:00;6.38;;;3.75;;
61915;SDS011;47868;51.326;6.550;2024-03-23T08:56:26;8.48;;;3.95;;
61915;SDS011;47868;51.326;6.550;2024-03-23T08:58:52;10.95;;;5.93;;
61915;SDS011;47868;51.326;6.550;2024-03-23T09:01:18;12.88;;;5.05;;
61915;SDS011;47868;51.326;6.550;2024-03-23T09:03:44;14.10;;;5.75;;
61915;SDS011;47868;51.326;6.550;2024-03-23T09:06:11;11.80;;;6.18;;
61915;SDS011;47868;51.326;6.550;2024-03-23T09:08:37;13.60;;;6.05;;
61915;SDS011;47868;51.326;6.550;2024-03-23T09:11:04;11.45;;;5.13;;
61915;SDS011;47868;51.326;6.550;2024-03-23T09:13:31;18.15;;;4.85;;
61915;SDS011;47868;51.326;6.550;2024-03-23T09:15:57;10.27;;;4.20;;
61915;SDS011;47868;51.326;6.550;2024-03-23T09:18:23;14.35;;;4.30;;
61915;SDS011;47868;51.326;6.550;2024-03-23T09:20:49;11.82;;;4.70;;
61915;SDS011;47868;51.326;6.550;2024-03-23T09:23:15;7.30;;;3.30;;
61915;SDS011;47868;51.326;6.550;2024-03-23T09:25:41;12.75;;;4.80;;
61915;SDS011;47868;51.326;6.550;2024-03-23T09:28:07;13.27;;;3.53;;
61915;SDS011;47868;51.326;6.550;2024-03-23T09:30:36;10.88;;;3.50;;
61915;SDS011;47868;51.326;6.550;2024-03-23T09:33:07;6.95;;;3.97;;
61915;SDS011;47868;51.326;6.550;2024-03-23T09:35:36;10.82;;;3.50;;
61915;SDS011;47868;51.326;6.550;2024-03-23T09:38:02;13.63;;;3.42;;
61915;SDS011;47868;51.326;6.550;2024-03-23T09:40:28;16.52;;;4.20;;
61915;SDS011;47868;51.326;6.550;2024-03-23T09:42:54;12.43;;;3.88;;
61915;SDS011;47868;51.326;6.550;2024-03-23T09:45:26;9.95;;;3.72;;
61915;SDS011;47868;51.326;6.550;2024-03-23T09:47:53;14.00;;;3.72;;
61915;SDS011;47868;51.326;6.550;2024-03-23T09:50:20;10.80;;;3.92;;
61915;SDS011;47868;51.326;6.550;2024-03-23T09:52:46;8.30;;;3.38;;
61915;SDS011;47868;51.326;6.550;2024-03-23T09:55:12;12.07;;;4.30;;
61915;SDS011;47868;51.326;6.550;2024-03-23T09:57:39;12.82;;;3.55;;
61915;SDS011;47868;51.326;6.550;2024-03-23T10:00:06;8.65;;;3.03;;
61915;SDS011;47868;51.326;6.550;2024-03-23T10:02:33;10.18;;;3.60;;
61915;SDS011;47868;51.326;6.550;2024-03-23T10:04:59;16.60;;;3.03;;
61915;SDS011;47868;51.326;6.550;2024-03-23T10:07:25;10.38;;;3.55;;
61915;SDS011;47868;51.326;6.550;2024-03-23T10:09:54;5.80;;;2.97;;
61915;SDS011;47868;51.326;6.550;2024-03-23T10:12:20;10.38;;;3.22;;
61915;SDS011;47868;51.326;6.550;2024-03-23T10:14:47;4.82;;;2.50;;
61915;SDS011;47868;51.326;6.550;2024-03-23T10:19:39;5.60;;;2.55;;
61915;SDS011;47868;51.326;6.550;2024-03-23T10:22:06;4.32;;;2.30;;
61915;SDS011;47868;51.326;6.550;2024-03-23T10:24:32;3.00;;;2.08;;
61915;SDS011;47868;51.326;6.550;2024-03-23T10:26:58;4.50;;;1.70;;
61915;SDS011;47868;51.326;6.550;2024-03-23T10:29:24;8.25;;;2.47;;
61915;SDS011;47868;51.326;6.550;2024-03-23T10:31:52;5.72;;;2.10;;
61915;SDS011;47868;51.326;6.550;2024-03-23T10:34:24;5.63;;;2.53;;
61915;SDS011;47868;51.326;6.550;2024-03-23T10:36:52;5.18;;;2.22;;
61915;SDS011;47868;51.326;6.550;2024-03-23T10:39:20;9.00;;;3.78;;
61915;SDS011;47868;51.326;6.550;2024-03-23T10:41:48;8.52;;;2.70;;
61915;SDS011;47868;51.326;6.550;2024-03-23T10:44:16;4.25;;;1.80;;
61915;SDS011;47868;51.326;6.550;2024-03-23T10:46:42;3.55;;;1.27;;
61915;SDS011;47868;51.326;6.550;2024-03-23T10:49:08;2.60;;;1.20;;
61915;SDS011;47868;51.326;6.550;2024-03-23T10:51:34;1.35;;;1.10;;
61915;SDS011;47868;51.326;6.550;2024-03-23T10:54:01;1.35;;;1.08;;
61915;SDS011;47868;51.326;6.550;2024-03-23T10:56:31;3.10;;;1.40;;
61915;SDS011;47868;51.326;6.550;2024-03-23T10:58:59;4.80;;;1.63;;
61915;SDS011;47868;51.326;6.550;2024-03-23T11:01:28;6.45;;;2.35;;
61915;SDS011;47868;51.326;6.550;2024-03-23T11:03:54;6.38;;;2.92;;
61915;SDS011;47868;51.326;6.550;2024-03-23T11:06:36;7.32;;;2.90;;
61915;SDS011;47868;51.326;6.550;2024-03-23T11:09:02;4.32;;;2.30;;
61915;SDS011;47868;51.326;6.550;2024-03-23T11:11:28;5.22;;;2.58;;
61915;SDS011;47868;51.326;6.550;2024-03-23T11:13:57;5.32;;;2.13;;
61915;SDS011;47868;51.326;6.550;2024-03-23T11:16:24;4.88;;;2.20;;
61915;SDS011;47868;51.326;6.550;2024-03-23T11:18:52;5.80;;;2.45;;
61915;SDS011;47868;51.326;6.550;2024-03-23T11:21:51;8.23;;;2.20;;
61915;SDS011;47868;51.326;6.550;2024-03-23T11:24:13;5.13;;;2.05;;
61915;SDS011;47868;51.326;6.550;2024-03-23T11:26:39;6.55;;;2.42;;
61915;SDS011;47868;51.326;6.550;2024-03-23T11:29:09;6.30;;;2.60;;
61915;SDS011;47868;51.326;6.550;2024-03-23T11:31:36;5.45;;;2.42;;
61915;SDS011;47868;51.326;6.550;2024-03-23T11:34:05;6.10;;;2.20;;
61915;SDS011;47868;51.326;6.550;2024-03-23T11:36:31;4.18;;;1.98;;
61915;SDS011;47868;51.326;6.550;2024-03-23T11:38:57;3.30;;;2.03;;
61915;SDS011;47868;51.326;6.550;2024-03-23T11:41:23;2.63;;;1.80;;
61915;SDS011;47868;51.326;6.550;2024-03-23T11:43:50;3.47;;;1.60;;
61915;SDS011;47868;51.326;6.550;2024-03-23T11:46:22;7.47;;;2.25;;
61915;SDS011;47868;51.326;6.550;2024-03-23T11:48:51;3.70;;;2.00;;
61915;SDS011;47868;51.326;6.550;2024-03-23T11:51:17;4.22;;;1.63;;
61915;SDS011;47868;51.326;6.550;2024-03-23T11:53:43;3.38;;;1.90;;
61915;SDS011;47868;51.326;6.550;2024-03-23T11:56:09;6.50;;;2.22;;
61915;SDS011;47868;51.326;6.550;2024-03-23T11:58:35;8.00;;;2.40;;
61915;SDS011;47868;51.326;6.550;2024-03-23T12:01:02;4.20;;;2.10;;
61915;SDS011;47868;51.326;6.550;2024-03-23T12:03:28;4.35;;;1.98;;
61915;SDS011;47868;51.326;6.550;2024-03-23T12:05:55;2.97;;;1.73;;
61915;SDS011;47868;51.326;6.550;2024-03-23T12:08:22;3.42;;;1.90;;
61915;SDS011;47868;51.326;6.550;2024-03-23T12:10:52;6.05;;;2.50;;
61915;SDS011;47868;51.326;6.550;2024-03-23T12:13:19;5.82;;;2.45;;
61915;SDS011;47868;51.326;6.550;2024-03-23T12:15:46;3.70;;;2.03;;
61915;SDS011;47868;51.326;6.550;2024-03-23T12:18:12;5.30;;;2.15;;
61915;SDS011;47868;51.326;6.550;2024-03-23T12:20:38;4.63;;;2.50;;
61915;SDS011;47868;51.326;6.550;2024-03-23T12:23:13;8.75;;;2.67;;
61915;SDS011;47868;51.326;6.550;2024-03-23T12:25:39;6.10;;;2.65;;
61915;SDS011;47868;51.326;6.550;2024-03-23T12:28:06;6.40;;;2.95;;
61915;SDS011;47868;51.326;6.550;2024-03-23T12:30:35;7.03;;;2.60;;
61915;SDS011;47868;51.326;6.550;2024-03-23T12:33:03;5.22;;;2.40;;
61915;SDS011;47868;51.326;6.550;2024-03-23T12:35:28;2.75;;;1.40;;
61915;SDS011;47868;51.326;6.550;2024-03-23T12:37:55;3.30;;;1.80;;
61915;SDS011;47868;51.326;6.550;2024-03-23T12:40:21;3.20;;;1.67;;
61915;SDS011;47868;51.326;6.550;2024-03-23T12:42:47;3.88;;;1.77;;
61915;SDS011;47868;51.326;6.550;2024-03-23T12:45:13;4.85;;;2.15;;
61915;SDS011;47868;51.326;6.550;2024-03-23T12:47:39;3.72;;;1.63;;
61915;SDS011;47868;51.326;6.550;2024-03-23T12:50:05;4.47;;;1.70;;
61915;SDS011;47868;51.326;6.550;2024-03-23T12:52:32;3.13;;;1.80;;
61915;SDS011;47868;51.326;6.550;2024-03-23T12:54:58;2.95;;;1.90;;
61915;SDS011;47868;51.326;6.550;2024-03-23T12:57:24;3.95;;;1.80;;
61915;SDS011;47868;51.326;6.550;2024-03-23T12:59:51;3.10;;;1.45;;
61915;SDS011;47868;51.326;6.550;2024-03-23T13:02:20;2.38;;;1.33;;
61915;SDS011;47868;51.326;6.550;2024-03-23T13:04:49;2.42;;;1.42;;
61915;SDS011;47868;51.326;6.550;2024-03-23T13:07:15;3.20;;;1.42;;
61915;SDS011;47868;51.326;6.550;2024-03-23T13:09:41;3.72;;;1.40;;
61915;SDS011;47868;51.326;6.550;2024-03-23T13:12:07;3.78;;;1.85;;
61915;SDS011;47868;51.326;6.550;2024-03-23T13:14:33;9.30;;;2.28;;
61915;SDS011;47868;51.326;6.550;2024-03-23T13:16:59;4.63;;;1.70;;
61915;SDS011;47868;51.326;6.550;2024-03-23T13:19:26;3.83;;;1.50;;
61915;SDS011;47868;51.326;6.550;2024-03-23T13:21:55;3.13;;;1.63;;
61915;SDS011;47868;51.326;6.550;2024-03-23T13:24:22;3.03;;;1.63;;
61915;SDS011;47868;51.326;6.550;2024-03-23T13:26:49;3.97;;;1.05;;
61915;SDS011;47868;51.326;6.550;2024-03-23T13:29:15;1.27;;;1.10;;
61915;SDS011;47868;51.326;6.550;2024-03-23T13:31:41;4.45;;;1.25;;
61915;SDS011;47868;51.326;6.550;2024-03-23T13:34:07;2.35;;;1.25;;
61915;SDS011;47868;51.326;6.550;2024-03-23T13:36:33;1.58;;;1.00;;
61915;SDS011;47868;51.326;6.550;2024-03-23T13:39:00;3.00;;;1.40;;
61915;SDS011;47868;51.326;6.550;2024-03-23T13:41:27;3.75;;;1.27;;
61915;SDS011;47868;51.326;6.550;2024-03-23T13:43:53;2.63;;;1.20;;
61915;SDS011;47868;51.326;6.550;2024-03-23T13:46:19;2.78;;;1.30;;
61915;SDS011;47868;51.326;6.550;2024-03-23T13:48:45;2.95;;;1.33;;
61915;SDS011;47868;51.326;6.550;2024-03-23T13:51:11;2.38;;;1.40;;
61915;SDS011;47868;51.326;6.550;2024-03-23T13:53:38;4.28;;;1.70;;
61915;SDS011;47868;51.326;6.550;2024-03-23T13:56:04;5.75;;;1.70;;
61915;SDS011;47868;51.326;6.550;2024-03-23T13:58:30;3.47;;;1.58;;
61915;SDS011;47868;51.326;6.550;2024-03-23T14:00:56;3.00;;;1.67;;
61915;SDS011;47868;51.326;6.550;2024-03-23T14:03:25;5.03;;;2.03;;
61915;SDS011;47868;51.326;6.550;2024-03-23T14:05:54;3.53;;;1.75;;
61915;SDS011;47868;51.326;6.550;2024-03-23T14:08:23;5.45;;;1.50;;
61915;SDS011;47868;51.326;6.550;2024-03-23T14:10:49;6.80;;;1.73;;
61915;SDS011;47868;51.326;6.550;2024-03-23T14:13:16;6.45;;;2.00;;
61915;SDS011;47868;51.326;6.550;2024-03-23T14:15:43;5.80;;;1.88;;
61915;SDS011;47868;51.326;6.550;2024-03-23T14:18:09;4.03;;;1.45;;
61915;SDS011;47868;51.326;6.550;2024-03-23T14:20:35;4.47;;;1.83;;
61915;SDS011;47868;51.326;6.550;2024-03-23T14:23:01;4.03;;;1.80;;
61915;SDS011;47868;51.326;6.550;2024-03-23T14:25:34;3.13;;;1.70;;
61915;SDS011;47868;51.326;6.550;2024-03-23T14:28:00;3.05;;;1.85;;
61915;SDS011;47868;51.326;6.550;2024-03-23T14:30:26;11.30;;;1.70;;
61915;SDS011;47868;51.326;6.550;2024-03-23T14:32:52;3.97;;;1.90;;
61915;SDS011;47868;51.326;6.550;2024-03-23T14:35:18;3.25;;;1.70;;
61915;SDS011;47868;51.326;6.550;2024-03-23T14:37:44;3.15;;;1.77;;
61915;SDS011;47868;51.326;6.550;2024-03-23T14:40:12;3.42;;;1.50;;
61915;SDS011;47868;51.326;6.550;2024-03-23T14:42:38;1.98;;;1.48;;
61915;SDS011;47868;51.326;6.550;2024-03-23T14:45:04;1.23;;;1.10;;
61915;SDS011;47868;51.326;6.550;2024-03-23T14:47:30;3.00;;;1.13;;
61915;SDS011;47868;51.326;6.550;2024-03-23T14:49:56;3.08;;;1.40;;
61915;SDS011;47868;51.326;6.550;2024-03-23T14:52:23;2.53;;;1.50;;
61915;SDS011;47868;51.326;6.550;2024-03-23T14:54:49;1.58;;;1.23;;
61915;SDS011;47868;51.326;6.550;2024-03-23T14:57:15;3.42;;;1.73;;
61915;SDS011;47868;51.326;6.550;2024-03-23T14:59:45;4.00;;;2.00;;
61915;SDS011;47868;51.326;6.550;2024-03-23T15:02:11;3.03;;;1.42;;
61915;SDS011;47868;51.326;6.550;2024-03-23T15:04:38;1.60;;;1.40;;
61915;SDS011;47868;51.326;6.550;2024-03-23T15:07:06;2.97;;;1.50;;
61915;SDS011;47868;51.326;6.550;2024-03-23T15:09:33;2.35;;;1.33;;
61915;SDS011;47868;51.326;6.550;2024-03-23T15:11:59;2.05;;;1.20;;
61915;SDS011;47868;51.326;6.550;2024-03-23T15:14:25;2.45;;;1.10;;
61915;SDS011;47868;51.326;6.550;2024-03-23T15:16:51;2.80;;;1.30;;
61915;SDS011;47868;51.326;6.550;2024-03-23T15:19:17;3.92;;;1.27;;
61915;SDS011;47868;51.326;6.550;2024-03-23T15:21:44;2.45;;;1.35;;
61915;SDS011;47868;51.326;6.550;2024-03-23T15:24:10;4.10;;;1.42;;
61915;SDS011;47868;51.326;6.550;2024-03-23T15:26:36;1.90;;;1.33;;
61915;SDS011;47868;51.326;6.550;2024-03-23T15:29:02;1.60;;;1.33;;
61915;SDS011;47868;51.326;6.550;2024-03-23T15:31:35;2.00;;;1.10;;
61915;SDS011;47868;51.326;6.550;2024-03-23T15:34:02;4.30;;;1.55;;
61915;SDS011;47868;51.326;6.550;2024-03-23T15:36:29;5.13;;;1.40;;
61915;SDS011;47868;51.326;6.550;2024-03-23T15:38:55;2.10;;;1.08;;